sensor_id;sensor_type;location;lat;lon;timestamp;P1;durP1;ratioP1;P2;durP2;ratioP2
67528;SDS011;54366;51.980;5.856;2023-04-21T00:01:48;18.42;;;15.57;;
67528;SDS011;54366;51.980;5.856;2023-04-21T00:04:21;18.33;;;14.85;;
67528;SDS011;54366;51.980;5.856;2023-04-21T00:06:55;16.60;;;14.15;;
67528;SDS011;54366;51.980;5.856;2023-04-21T00:09:21;19.83;;;16.70;;
67528;SDS011;54366;51.980;5.856;2023-04-21T00:11:54;18.30;;;14.90;;
67528;SDS011;54366;51.980;5.856;2023-04-21T00:14:27;23.35;;;18.70;;
67528;SDS011;54366;51.980;5.856;2023-04-21T00:17:00;18.58;;;15.40;;
67528;SDS011;54366;51.980;5.856;2023-04-21T00:19:26;24.42;;;19.00;;
67528;SDS011;54366;51.980;5.856;2023-04-21T00:22:00;21.65;;;17.92;;
67528;SDS011;54366;51.980;5.856;2023-04-21T00:24:33;22.98;;;18.90;;
67528;SDS011;54366;51.980;5.856;2023-04-21T00:27:06;18.30;;;15.82;;
67528;SDS011;54366;51.980;5.856;2023-04-21T00:29:39;21.52;;;17.60;;
67528;SDS011;54366;51.980;5.856;2023-04-21T00:32:12;20.08;;;16.90;;
67528;SDS011;54366;51.980;5.856;2023-04-21T00:34:45;17.15;;;14.75;;
67528;SDS011;54366;51.980;5.856;2023-04-21T00:37:18;16.60;;;14.18;;
67528;SDS011;54366;51.980;5.856;2023-04-21T00:39:44;18.23;;;14.43;;
67528;SDS011;54366;51.980;5.856;2023-04-21T00:42:17;20.08;;;16.65;;
67528;SDS011;54366;51.980;5.856;2023-04-21T00:44:50;23.75;;;18.92;;
67528;SDS011;54366;51.980;5.856;2023-04-21T00:47:26;19.05;;;15.90;;
67528;SDS011;54366;51.980;5.856;2023-04-21T00:49:59;18.05;;;15.93;;
67528;SDS011;54366;51.980;5.856;2023-04-21T00:52:39;15.15;;;12.90;;
67528;SDS011;54366;51.980;5.856;2023-04-21T00:55:13;15.77;;;13.02;;
67528;SDS011;54366;51.980;5.856;2023-04-21T00:57:46;17.02;;;13.68;;
67528;SDS011;54366;51.980;5.856;2023-04-21T01:00:14;16.75;;;14.40;;
67528;SDS011;54366;51.980;5.856;2023-04-21T01:02:47;13.45;;;11.30;;
67528;SDS011;54366;51.980;5.856;2023-04-21T01:05:20;15.48;;;11.40;;
67528;SDS011;54366;51.980;5.856;2023-04-21T01:07:54;13.98;;;12.02;;
67528;SDS011;54366;51.980;5.856;2023-04-21T01:10:27;12.98;;;10.30;;
67528;SDS011;54366;51.980;5.856;2023-04-21T01:13:00;15.25;;;13.10;;
67528;SDS011;54366;51.980;5.856;2023-04-21T01:15:33;13.82;;;12.30;;
67528;SDS011;54366;51.980;5.856;2023-04-21T01:18:06;17.65;;;14.38;;
67528;SDS011;54366;51.980;5.856;2023-04-21T01:20:39;15.27;;;12.88;;
67528;SDS011;54366;51.980;5.856;2023-04-21T01:23:12;15.45;;;13.57;;
67528;SDS011;54366;51.980;5.856;2023-04-21T01:25:45;17.30;;;14.68;;
67528;SDS011;54366;51.980;5.856;2023-04-21T01:28:21;19.63;;;16.73;;
67528;SDS011;54366;51.980;5.856;2023-04-21T01:30:55;21.17;;;17.45;;
67528;SDS011;54366;51.980;5.856;2023-04-21T01:33:28;19.20;;;16.23;;
67528;SDS011;54366;51.980;5.856;2023-04-21T01:36:01;15.20;;;12.93;;
67528;SDS011;54366;51.980;5.856;2023-04-21T01:38:40;16.48;;;14.00;;
67528;SDS011;54366;51.980;5.856;2023-04-21T01:41:13;15.75;;;13.32;;
67528;SDS011;54366;51.980;5.856;2023-04-21T01:43:39;15.68;;;13.98;;
67528;SDS011;54366;51.980;5.856;2023-04-21T01:46:12;18.98;;;16.10;;
67528;SDS011;54366;51.980;5.856;2023-04-21T01:48:45;20.58;;;17.50;;
67528;SDS011;54366;51.980;5.856;2023-04-21T01:51:24;18.60;;;16.23;;
67528;SDS011;54366;51.980;5.856;2023-04-21T01:53:58;19.83;;;16.48;;
67528;SDS011;54366;51.980;5.856;2023-04-21T01:56:31;21.58;;;17.58;;
67528;SDS011;54366;51.980;5.856;2023-04-21T01:59:04;19.77;;;17.17;;
67528;SDS011;54366;51.980;5.856;2023-04-21T02:01:37;20.52;;;17.80;;
67528;SDS011;54366;51.980;5.856;2023-04-21T02:04:10;23.67;;;20.20;;
67528;SDS011;54366;51.980;5.856;2023-04-21T02:06:43;21.30;;;18.23;;
67528;SDS011;54366;51.980;5.856;2023-04-21T02:09:16;18.10;;;15.77;;
67528;SDS011;54366;51.980;5.856;2023-04-21T02:11:42;21.00;;;17.60;;
67528;SDS011;54366;51.980;5.856;2023-04-21T02:14:16;18.42;;;16.20;;
67528;SDS011;54366;51.980;5.856;2023-04-21T02:16:42;19.20;;;17.15;;
67528;SDS011;54366;51.980;5.856;2023-04-21T02:19:15;18.25;;;16.33;;
67528;SDS011;54366;51.980;5.856;2023-04-21T02:21:41;15.90;;;14.25;;
67528;SDS011;54366;51.980;5.856;2023-04-21T02:24:14;22.08;;;19.30;;
67528;SDS011;54366;51.980;5.856;2023-04-21T02:26:47;17.63;;;15.50;;
67528;SDS011;54366;51.980;5.856;2023-04-21T02:29:13;16.60;;;14.80;;
67528;SDS011;54366;51.980;5.856;2023-04-21T02:31:46;17.80;;;15.32;;
67528;SDS011;54366;51.980;5.856;2023-04-21T02:34:19;17.42;;;15.63;;
67528;SDS011;54366;51.980;5.856;2023-04-21T02:36:52;18.65;;;15.90;;
67528;SDS011;54366;51.980;5.856;2023-04-21T02:39:25;20.90;;;18.70;;
67528;SDS011;54366;51.980;5.856;2023-04-21T02:41:52;17.38;;;15.57;;
67528;SDS011;54366;51.980;5.856;2023-04-21T02:44:24;16.30;;;14.60;;
67528;SDS011;54366;51.980;5.856;2023-04-21T02:46:50;17.63;;;15.73;;
67528;SDS011;54366;51.980;5.856;2023-04-21T02:49:29;15.80;;;14.10;;
67528;SDS011;54366;51.980;5.856;2023-04-21T02:52:11;17.80;;;15.02;;
67528;SDS011;54366;51.980;5.856;2023-04-21T02:54:44;18.23;;;16.25;;
67528;SDS011;54366;51.980;5.856;2023-04-21T02:57:10;17.85;;;16.02;;
67528;SDS011;54366;51.980;5.856;2023-04-21T02:59:43;21.10;;;18.80;;
67528;SDS011;54366;51.980;5.856;2023-04-21T03:02:16;21.25;;;18.85;;
67528;SDS011;54366;51.980;5.856;2023-04-21T03:04:49;20.60;;;18.48;;
67528;SDS011;54366;51.980;5.856;2023-04-21T03:07:22;20.63;;;18.42;;
67528;SDS011;54366;51.980;5.856;2023-04-21T03:09:48;20.67;;;18.52;;
67528;SDS011;54366;51.980;5.856;2023-04-21T03:12:21;18.77;;;16.88;;
67528;SDS011;54366;51.980;5.856;2023-04-21T03:14:54;17.58;;;15.70;;
67528;SDS011;54366;51.980;5.856;2023-04-21T03:17:27;16.25;;;14.55;;
67528;SDS011;54366;51.980;5.856;2023-04-21T03:20:00;15.38;;;13.77;;
67528;SDS011;54366;51.980;5.856;2023-04-21T03:22:37;16.17;;;14.50;;
67528;SDS011;54366;51.980;5.856;2023-04-21T03:25:04;15.00;;;13.40;;
67528;SDS011;54366;51.980;5.856;2023-04-21T03:30:11;19.70;;;17.70;;
67528;SDS011;54366;51.980;5.856;2023-04-21T03:32:44;17.05;;;15.30;;
67528;SDS011;54366;51.980;5.856;2023-04-21T03:35:17;21.73;;;19.42;;
67528;SDS011;54366;51.980;5.856;2023-04-21T03:37:43;17.08;;;15.35;;
67528;SDS011;54366;51.980;5.856;2023-04-21T03:40:16;17.05;;;15.30;;
67528;SDS011;54366;51.980;5.856;2023-04-21T03:42:49;17.90;;;16.05;;
67528;SDS011;54366;51.980;5.856;2023-04-21T03:45:22;18.08;;;16.25;;
67528;SDS011;54366;51.980;5.856;2023-04-21T03:47:58;19.88;;;17.77;;
67528;SDS011;54366;51.980;5.856;2023-04-21T03:50:31;17.75;;;15.85;;
67528;SDS011;54366;51.980;5.856;2023-04-21T03:53:10;18.35;;;16.48;;
67528;SDS011;54366;51.980;5.856;2023-04-21T03:55:43;21.40;;;19.20;;
67528;SDS011;54366;51.980;5.856;2023-04-21T03:58:16;30.92;;;27.63;;
67528;SDS011;54366;51.980;5.856;2023-04-21T04:00:49;21.70;;;19.45;;
67528;SDS011;54366;51.980;5.856;2023-04-21T04:03:15;29.13;;;26.02;;
67528;SDS011;54366;51.980;5.856;2023-04-21T04:05:48;25.70;;;22.30;;
67528;SDS011;54366;51.980;5.856;2023-04-21T04:08:14;21.73;;;19.52;;
67528;SDS011;54366;51.980;5.856;2023-04-21T04:10:47;23.10;;;20.50;;
67528;SDS011;54366;51.980;5.856;2023-04-21T04:13:20;21.83;;;19.52;;
67528;SDS011;54366;51.980;5.856;2023-04-21T04:15:47;22.83;;;20.42;;
67528;SDS011;54366;51.980;5.856;2023-04-21T04:18:20;22.58;;;20.10;;
67528;SDS011;54366;51.980;5.856;2023-04-21T04:20:53;27.27;;;24.33;;
67528;SDS011;54366;51.980;5.856;2023-04-21T04:23:19;22.60;;;20.13;;
67528;SDS011;54366;51.980;5.856;2023-04-21T04:25:53;24.38;;;21.70;;
67528;SDS011;54366;51.980;5.856;2023-04-21T04:28:27;29.42;;;26.30;;
67528;SDS011;54366;51.980;5.856;2023-04-21T04:31:01;29.17;;;26.08;;
67528;SDS011;54366;51.980;5.856;2023-04-21T04:33:34;24.73;;;22.13;;
67528;SDS011;54366;51.980;5.856;2023-04-21T04:36:07;24.95;;;22.30;;
67528;SDS011;54366;51.980;5.856;2023-04-21T04:38:40;24.23;;;21.63;;
67528;SDS011;54366;51.980;5.856;2023-04-21T04:41:13;27.00;;;24.10;;
67528;SDS011;54366;51.980;5.856;2023-04-21T04:43:47;28.25;;;25.27;;
67528;SDS011;54366;51.980;5.856;2023-04-21T04:46:20;34.53;;;30.65;;
67528;SDS011;54366;51.980;5.856;2023-04-21T04:48:53;29.52;;;25.33;;
67528;SDS011;54366;51.980;5.856;2023-04-21T04:51:26;28.95;;;25.75;;
67528;SDS011;54366;51.980;5.856;2023-04-21T04:54:06;27.27;;;24.30;;
67528;SDS011;54366;51.980;5.856;2023-04-21T04:56:39;24.80;;;22.10;;
67528;SDS011;54366;51.980;5.856;2023-04-21T04:59:12;31.60;;;27.70;;
67528;SDS011;54366;51.980;5.856;2023-04-21T05:01:45;32.22;;;28.67;;
67528;SDS011;54366;51.980;5.856;2023-04-21T05:04:11;28.88;;;25.85;;
67528;SDS011;54366;51.980;5.856;2023-04-21T05:06:47;26.23;;;23.42;;
67528;SDS011;54366;51.980;5.856;2023-04-21T05:09:20;31.75;;;27.20;;
67528;SDS011;54366;51.980;5.856;2023-04-21T05:11:53;33.67;;;26.80;;
67528;SDS011;54366;51.980;5.856;2023-04-21T05:14:19;35.65;;;30.83;;
67528;SDS011;54366;51.980;5.856;2023-04-21T05:16:52;31.02;;;27.55;;
67528;SDS011;54366;51.980;5.856;2023-04-21T05:19:25;25.20;;;22.50;;
67528;SDS011;54366;51.980;5.856;2023-04-21T05:21:58;23.30;;;20.90;;
67528;SDS011;54366;51.980;5.856;2023-04-21T05:24:27;23.40;;;20.38;;
67528;SDS011;54366;51.980;5.856;2023-04-21T05:27:00;27.15;;;23.90;;
67528;SDS011;54366;51.980;5.856;2023-04-21T05:29:34;26.40;;;22.88;;
67528;SDS011;54366;51.980;5.856;2023-04-21T05:32:00;33.85;;;29.92;;
67528;SDS011;54366;51.980;5.856;2023-04-21T05:34:33;26.60;;;23.52;;
67528;SDS011;54366;51.980;5.856;2023-04-21T05:37:06;30.13;;;26.33;;
67528;SDS011;54366;51.980;5.856;2023-04-21T05:39:41;30.95;;;26.25;;
67528;SDS011;54366;51.980;5.856;2023-04-21T05:42:14;30.20;;;26.85;;
67528;SDS011;54366;51.980;5.856;2023-04-21T05:44:47;32.28;;;28.77;;
67528;SDS011;54366;51.980;5.856;2023-04-21T05:47:13;29.27;;;26.10;;
67528;SDS011;54366;51.980;5.856;2023-04-21T05:49:46;32.28;;;28.70;;
67528;SDS011;54366;51.980;5.856;2023-04-21T05:52:29;32.03;;;27.98;;
67528;SDS011;54366;51.980;5.856;2023-04-21T05:55:03;30.83;;;26.48;;
67528;SDS011;54366;51.980;5.856;2023-04-21T05:57:36;28.17;;;25.15;;
67528;SDS011;54366;51.980;5.856;2023-04-21T06:00:03;26.10;;;23.35;;
67528;SDS011;54366;51.980;5.856;2023-04-21T06:02:36;26.60;;;23.58;;
67528;SDS011;54366;51.980;5.856;2023-04-21T06:05:02;28.25;;;25.15;;
67528;SDS011;54366;51.980;5.856;2023-04-21T06:07:35;30.52;;;27.25;;
67528;SDS011;54366;51.980;5.856;2023-04-21T06:10:09;29.48;;;25.65;;
67528;SDS011;54366;51.980;5.856;2023-04-21T06:12:35;35.10;;;29.67;;
67528;SDS011;54366;51.980;5.856;2023-04-21T06:15:08;28.20;;;25.13;;
67528;SDS011;54366;51.980;5.856;2023-04-21T06:17:41;24.98;;;22.27;;
67528;SDS011;54366;51.980;5.856;2023-04-21T06:20:14;26.88;;;23.55;;
67528;SDS011;54366;51.980;5.856;2023-04-21T06:22:48;24.60;;;21.73;;
67528;SDS011;54366;51.980;5.856;2023-04-21T06:25:21;21.90;;;19.60;;
67528;SDS011;54366;51.980;5.856;2023-04-21T06:27:54;28.02;;;24.95;;
67528;SDS011;54366;51.980;5.856;2023-04-21T06:30:27;26.65;;;23.70;;
67528;SDS011;54366;51.980;5.856;2023-04-21T06:33:00;25.00;;;21.05;;
67528;SDS011;54366;51.980;5.856;2023-04-21T06:35:33;24.55;;;21.80;;
67528;SDS011;54366;51.980;5.856;2023-04-21T06:38:07;29.25;;;25.23;;
67528;SDS011;54366;51.980;5.856;2023-04-21T06:40:40;22.55;;;20.15;;
67528;SDS011;54366;51.980;5.856;2023-04-21T06:43:13;25.55;;;22.38;;
67528;SDS011;54366;51.980;5.856;2023-04-21T06:45:39;25.38;;;22.55;;
67528;SDS011;54366;51.980;5.856;2023-04-21T06:48:12;34.75;;;31.00;;
67528;SDS011;54366;51.980;5.856;2023-04-21T06:50:51;28.30;;;25.20;;
67528;SDS011;54366;51.980;5.856;2023-04-21T06:53:31;28.17;;;25.15;;
67528;SDS011;54366;51.980;5.856;2023-04-21T06:56:04;28.55;;;25.15;;
67528;SDS011;54366;51.980;5.856;2023-04-21T06:58:37;31.02;;;27.63;;
67528;SDS011;54366;51.980;5.856;2023-04-21T07:01:10;32.92;;;28.52;;
67528;SDS011;54366;51.980;5.856;2023-04-21T07:03:36;27.25;;;24.35;;
67528;SDS011;54366;51.980;5.856;2023-04-21T07:06:09;30.75;;;27.25;;
67528;SDS011;54366;51.980;5.856;2023-04-21T07:08:42;29.13;;;24.48;;
67528;SDS011;54366;51.980;5.856;2023-04-21T07:11:15;26.23;;;23.42;;
67528;SDS011;54366;51.980;5.856;2023-04-21T07:13:48;28.23;;;25.20;;
67528;SDS011;54366;51.980;5.856;2023-04-21T07:16:14;28.48;;;25.38;;
67528;SDS011;54366;51.980;5.856;2023-04-21T07:18:47;28.60;;;25.50;;
67528;SDS011;54366;51.980;5.856;2023-04-21T07:21:20;33.85;;;30.25;;
67528;SDS011;54366;51.980;5.856;2023-04-21T07:23:53;33.45;;;29.85;;
67528;SDS011;54366;51.980;5.856;2023-04-21T07:26:26;29.67;;;26.52;;
67528;SDS011;54366;51.980;5.856;2023-04-21T07:28:59;30.10;;;26.77;;
67528;SDS011;54366;51.980;5.856;2023-04-21T07:31:32;29.50;;;25.02;;
67528;SDS011;54366;51.980;5.856;2023-04-21T07:34:05;27.05;;;24.23;;
67528;SDS011;54366;51.980;5.856;2023-04-21T07:36:31;27.73;;;24.83;;
67528;SDS011;54366;51.980;5.856;2023-04-21T07:39:04;32.47;;;28.95;;
67528;SDS011;54366;51.980;5.856;2023-04-21T07:41:37;34.53;;;29.55;;
67528;SDS011;54366;51.980;5.856;2023-04-21T07:44:03;30.92;;;27.65;;
67528;SDS011;54366;51.980;5.856;2023-04-21T07:46:36;30.60;;;27.33;;
67528;SDS011;54366;51.980;5.856;2023-04-21T07:49:09;28.52;;;25.55;;
67528;SDS011;54366;51.980;5.856;2023-04-21T07:51:48;36.17;;;31.35;;
67528;SDS011;54366;51.980;5.856;2023-04-21T07:54:28;28.85;;;25.75;;
67528;SDS011;54366;51.980;5.856;2023-04-21T07:56:54;28.58;;;25.58;;
67528;SDS011;54366;51.980;5.856;2023-04-21T07:59:27;33.35;;;29.80;;
67528;SDS011;54366;51.980;5.856;2023-04-21T08:01:53;27.73;;;24.77;;
67528;SDS011;54366;51.980;5.856;2023-04-21T08:04:26;33.42;;;29.58;;
67528;SDS011;54366;51.980;5.856;2023-04-21T08:06:59;30.35;;;27.10;;
67528;SDS011;54366;51.980;5.856;2023-04-21T08:09:32;35.67;;;31.15;;
67528;SDS011;54366;51.980;5.856;2023-04-21T08:11:58;29.30;;;26.10;;
67528;SDS011;54366;51.980;5.856;2023-04-21T08:14:31;27.23;;;23.88;;
67528;SDS011;54366;51.980;5.856;2023-04-21T08:17:04;28.15;;;25.17;;
67528;SDS011;54366;51.980;5.856;2023-04-21T08:19:30;37.17;;;33.00;;
67528;SDS011;54366;51.980;5.856;2023-04-21T08:22:03;31.98;;;28.13;;
67528;SDS011;54366;51.980;5.856;2023-04-21T08:24:30;32.47;;;29.02;;
67528;SDS011;54366;51.980;5.856;2023-04-21T08:27:03;30.75;;;27.45;;
67528;SDS011;54366;51.980;5.856;2023-04-21T08:29:36;35.25;;;31.48;;
67528;SDS011;54366;51.980;5.856;2023-04-21T08:32:09;33.20;;;28.55;;
67528;SDS011;54366;51.980;5.856;2023-04-21T08:34:56;32.00;;;28.65;;
67528;SDS011;54366;51.980;5.856;2023-04-21T08:37:29;29.05;;;25.95;;
67528;SDS011;54366;51.980;5.856;2023-04-21T08:40:09;28.63;;;25.63;;
67528;SDS011;54366;51.980;5.856;2023-04-21T08:42:36;33.38;;;28.73;;
67528;SDS011;54366;51.980;5.856;2023-04-21T08:45:10;33.58;;;29.95;;
67528;SDS011;54366;51.980;5.856;2023-04-21T08:47:43;32.65;;;29.27;;
67528;SDS011;54366;51.980;5.856;2023-04-21T08:50:17;27.65;;;24.90;;
67528;SDS011;54366;51.980;5.856;2023-04-21T08:52:50;29.05;;;25.98;;
67528;SDS011;54366;51.980;5.856;2023-04-21T08:55:29;31.67;;;27.52;;
67528;SDS011;54366;51.980;5.856;2023-04-21T08:58:03;28.85;;;25.85;;
67528;SDS011;54366;51.980;5.856;2023-04-21T09:00:37;27.45;;;24.65;;
67528;SDS011;54366;51.980;5.856;2023-04-21T09:03:12;30.75;;;27.48;;
67528;SDS011;54366;51.980;5.856;2023-04-21T09:05:45;30.13;;;26.77;;
67528;SDS011;54366;51.980;5.856;2023-04-21T09:08:33;27.75;;;24.83;;
67528;SDS011;54366;51.980;5.856;2023-04-21T09:11:13;29.25;;;26.10;;
67528;SDS011;54366;51.980;5.856;2023-04-21T09:13:46;27.45;;;24.60;;
67528;SDS011;54366;51.980;5.856;2023-04-21T09:16:16;31.95;;;28.63;;
67528;SDS011;54366;51.980;5.856;2023-04-21T09:18:52;31.02;;;27.90;;
67528;SDS011;54366;51.980;5.856;2023-04-21T09:21:28;27.33;;;24.42;;
67528;SDS011;54366;51.980;5.856;2023-04-21T09:24:03;27.35;;;24.55;;
67528;SDS011;54366;51.980;5.856;2023-04-21T09:26:37;28.88;;;25.85;;
67528;SDS011;54366;51.980;5.856;2023-04-21T09:29:07;25.88;;;23.10;;
67528;SDS011;54366;51.980;5.856;2023-04-21T09:31:40;28.47;;;25.47;;
67528;SDS011;54366;51.980;5.856;2023-04-21T09:34:19;32.58;;;27.88;;
67528;SDS011;54366;51.980;5.856;2023-04-21T09:36:59;32.03;;;28.73;;
67528;SDS011;54366;51.980;5.856;2023-04-21T09:39:33;28.65;;;25.65;;
67528;SDS011;54366;51.980;5.856;2023-04-21T09:42:09;31.20;;;28.00;;
67528;SDS011;54366;51.980;5.856;2023-04-21T09:44:42;29.55;;;26.45;;
67528;SDS011;54366;51.980;5.856;2023-04-21T09:47:15;32.22;;;28.80;;
67528;SDS011;54366;51.980;5.856;2023-04-21T09:49:50;31.67;;;28.30;;
67528;SDS011;54366;51.980;5.856;2023-04-21T09:52:29;30.75;;;27.58;;
67528;SDS011;54366;51.980;5.856;2023-04-21T09:55:05;26.48;;;23.77;;
67528;SDS011;54366;51.980;5.856;2023-04-21T09:57:49;29.33;;;26.27;;
67528;SDS011;54366;51.980;5.856;2023-04-21T10:00:17;32.13;;;28.55;;
67528;SDS011;54366;51.980;5.856;2023-04-21T10:02:54;31.35;;;27.20;;
67528;SDS011;54366;51.980;5.856;2023-04-21T10:05:23;25.08;;;22.45;;
67528;SDS011;54366;51.980;5.856;2023-04-21T10:07:56;34.25;;;28.42;;
67528;SDS011;54366;51.980;5.856;2023-04-21T10:10:27;31.02;;;27.92;;
67528;SDS011;54366;51.980;5.856;2023-04-21T10:13:03;28.67;;;25.63;;
67528;SDS011;54366;51.980;5.856;2023-04-21T10:15:37;27.73;;;24.77;;
67528;SDS011;54366;51.980;5.856;2023-04-21T10:18:12;28.58;;;25.52;;
67528;SDS011;54366;51.980;5.856;2023-04-21T10:20:53;29.20;;;26.20;;
67528;SDS011;54366;51.980;5.856;2023-04-21T10:26:25;30.90;;;27.77;;
67528;SDS011;54366;51.980;5.856;2023-04-21T10:29:04;26.38;;;23.77;;
67528;SDS011;54366;51.980;5.856;2023-04-21T10:31:35;33.28;;;29.88;;
67528;SDS011;54366;51.980;5.856;2023-04-21T10:34:13;30.85;;;27.33;;
67528;SDS011;54366;51.980;5.856;2023-04-21T10:37:06;28.30;;;25.30;;
67528;SDS011;54366;51.980;5.856;2023-04-21T10:39:42;29.20;;;26.23;;
67528;SDS011;54366;51.980;5.856;2023-04-21T10:42:24;28.27;;;25.38;;
67528;SDS011;54366;51.980;5.856;2023-04-21T10:47:43;23.92;;;21.50;;
67528;SDS011;54366;51.980;5.856;2023-04-21T10:50:20;25.50;;;22.95;;
67528;SDS011;54366;51.980;5.856;2023-04-21T10:53:09;25.65;;;22.98;;
67528;SDS011;54366;51.980;5.856;2023-04-21T10:55:43;23.77;;;21.20;;
67528;SDS011;54366;51.980;5.856;2023-04-21T10:58:20;28.10;;;24.88;;
67528;SDS011;54366;51.980;5.856;2023-04-21T11:00:55;24.05;;;21.55;;
67528;SDS011;54366;51.980;5.856;2023-04-21T11:03:33;24.85;;;22.27;;
67528;SDS011;54366;51.980;5.856;2023-04-21T11:06:16;25.67;;;23.08;;
67528;SDS011;54366;51.980;5.856;2023-04-21T11:08:55;26.90;;;23.65;;
67528;SDS011;54366;51.980;5.856;2023-04-21T11:11:28;24.95;;;22.35;;
67528;SDS011;54366;51.980;5.856;2023-04-21T11:14:01;27.33;;;24.50;;
67528;SDS011;54366;51.980;5.856;2023-04-21T11:16:34;27.48;;;24.63;;
67528;SDS011;54366;51.980;5.856;2023-04-21T11:19:08;26.38;;;23.58;;
67528;SDS011;54366;51.980;5.856;2023-04-21T11:21:41;25.05;;;22.55;;
67528;SDS011;54366;51.980;5.856;2023-04-21T11:24:14;29.30;;;26.17;;
67528;SDS011;54366;51.980;5.856;2023-04-21T11:26:47;26.08;;;23.50;;
67528;SDS011;54366;51.980;5.856;2023-04-21T11:29:14;24.77;;;22.15;;
67528;SDS011;54366;51.980;5.856;2023-04-21T11:31:47;24.48;;;21.92;;
67528;SDS011;54366;51.980;5.856;2023-04-21T11:34:21;25.60;;;22.90;;
67528;SDS011;54366;51.980;5.856;2023-04-21T11:36:56;23.90;;;21.55;;
67528;SDS011;54366;51.980;5.856;2023-04-21T11:39:29;27.00;;;24.08;;
67528;SDS011;54366;51.980;5.856;2023-04-21T11:42:02;23.92;;;21.52;;
67528;SDS011;54366;51.980;5.856;2023-04-21T11:44:39;24.05;;;21.65;;
67528;SDS011;54366;51.980;5.856;2023-04-21T11:47:15;26.45;;;22.38;;
67528;SDS011;54366;51.980;5.856;2023-04-21T11:49:54;24.88;;;22.20;;
67528;SDS011;54366;51.980;5.856;2023-04-21T11:52:39;25.17;;;22.65;;
67528;SDS011;54366;51.980;5.856;2023-04-21T11:55:19;23.45;;;21.13;;
67528;SDS011;54366;51.980;5.856;2023-04-21T11:57:52;25.70;;;22.92;;
67528;SDS011;54366;51.980;5.856;2023-04-21T12:00:28;25.17;;;22.48;;
67528;SDS011;54366;51.980;5.856;2023-04-21T12:03:07;24.65;;;21.98;;
67528;SDS011;54366;51.980;5.856;2023-04-21T12:05:41;24.98;;;22.33;;
67528;SDS011;54366;51.980;5.856;2023-04-21T12:08:14;23.50;;;21.10;;
67528;SDS011;54366;51.980;5.856;2023-04-21T12:10:44;27.33;;;24.00;;
67528;SDS011;54366;51.980;5.856;2023-04-21T12:13:21;25.52;;;22.73;;
67528;SDS011;54366;51.980;5.856;2023-04-21T12:15:54;25.77;;;21.98;;
67528;SDS011;54366;51.980;5.856;2023-04-21T12:18:27;26.80;;;24.00;;
67528;SDS011;54366;51.980;5.856;2023-04-21T12:21:02;26.35;;;23.65;;
67528;SDS011;54366;51.980;5.856;2023-04-21T12:23:35;24.73;;;22.02;;
67528;SDS011;54366;51.980;5.856;2023-04-21T12:26:10;26.45;;;23.65;;
67528;SDS011;54366;51.980;5.856;2023-04-21T12:28:43;25.35;;;22.70;;
67528;SDS011;54366;51.980;5.856;2023-04-21T12:31:16;23.92;;;21.52;;
67528;SDS011;54366;51.980;5.856;2023-04-21T12:33:49;26.23;;;23.65;;
67528;SDS011;54366;51.980;5.856;2023-04-21T12:36:22;24.17;;;21.50;;
67528;SDS011;54366;51.980;5.856;2023-04-21T12:38:55;26.92;;;24.15;;
67528;SDS011;54366;51.980;5.856;2023-04-21T12:41:21;25.95;;;23.17;;
67528;SDS011;54366;51.980;5.856;2023-04-21T12:43:54;23.95;;;21.50;;
67528;SDS011;54366;51.980;5.856;2023-04-21T12:46:27;25.60;;;22.85;;
67528;SDS011;54366;51.980;5.856;2023-04-21T12:49:00;22.98;;;20.58;;
67528;SDS011;54366;51.980;5.856;2023-04-21T12:51:34;23.88;;;21.45;;
67528;SDS011;54366;51.980;5.856;2023-04-21T12:54:01;21.90;;;19.60;;
67528;SDS011;54366;51.980;5.856;2023-04-21T12:56:40;27.55;;;24.60;;
67528;SDS011;54366;51.980;5.856;2023-04-21T12:59:13;26.13;;;23.30;;
67528;SDS011;54366;51.980;5.856;2023-04-21T13:01:46;25.38;;;22.55;;
67528;SDS011;54366;51.980;5.856;2023-04-21T13:04:12;25.73;;;22.38;;
67528;SDS011;54366;51.980;5.856;2023-04-21T13:06:45;24.42;;;21.83;;
67528;SDS011;54366;51.980;5.856;2023-04-21T13:09:18;24.42;;;21.95;;
67528;SDS011;54366;51.980;5.856;2023-04-21T13:11:51;24.80;;;21.98;;
67528;SDS011;54366;51.980;5.856;2023-04-21T13:14:17;21.92;;;19.70;;
67528;SDS011;54366;51.980;5.856;2023-04-21T13:16:51;23.35;;;20.85;;
67528;SDS011;54366;51.980;5.856;2023-04-21T13:19:24;23.67;;;21.10;;
67528;SDS011;54366;51.980;5.856;2023-04-21T13:21:51;21.35;;;19.05;;
67528;SDS011;54366;51.980;5.856;2023-04-21T13:24:23;22.42;;;19.50;;
67528;SDS011;54366;51.980;5.856;2023-04-21T13:26:57;19.80;;;17.65;;
67528;SDS011;54366;51.980;5.856;2023-04-21T13:29:32;19.92;;;17.92;;
67528;SDS011;54366;51.980;5.856;2023-04-21T13:32:05;18.27;;;16.38;;
67528;SDS011;54366;51.980;5.856;2023-04-21T13:34:38;20.63;;;18.45;;
67528;SDS011;54366;51.980;5.856;2023-04-21T13:37:11;17.20;;;15.40;;
67528;SDS011;54366;51.980;5.856;2023-04-21T13:39:47;19.95;;;17.85;;
67528;SDS011;54366;51.980;5.856;2023-04-21T13:42:14;20.63;;;18.38;;
67528;SDS011;54366;51.980;5.856;2023-04-21T13:44:46;18.73;;;16.83;;
67528;SDS011;54366;51.980;5.856;2023-04-21T13:47:19;22.00;;;19.52;;
67528;SDS011;54366;51.980;5.856;2023-04-21T13:49:46;17.42;;;15.63;;
67528;SDS011;54366;51.980;5.856;2023-04-21T13:52:19;20.67;;;18.30;;
67528;SDS011;54366;51.980;5.856;2023-04-21T13:55:06;18.42;;;16.63;;
67528;SDS011;54366;51.980;5.856;2023-04-21T13:57:39;20.85;;;18.08;;
67528;SDS011;54366;51.980;5.856;2023-04-21T14:00:12;20.85;;;18.60;;
67528;SDS011;54366;51.980;5.856;2023-04-21T14:02:46;20.45;;;18.27;;
67528;SDS011;54366;51.980;5.856;2023-04-21T14:05:13;16.80;;;15.10;;
67528;SDS011;54366;51.980;5.856;2023-04-21T14:07:45;19.75;;;17.75;;
67528;SDS011;54366;51.980;5.856;2023-04-21T14:10:18;19.42;;;17.42;;
67528;SDS011;54366;51.980;5.856;2023-04-21T14:12:51;20.23;;;18.10;;
67528;SDS011;54366;51.980;5.856;2023-04-21T14:15:24;21.70;;;18.95;;
67528;SDS011;54366;51.980;5.856;2023-04-21T14:17:57;20.98;;;18.98;;
67528;SDS011;54366;51.980;5.856;2023-04-21T14:20:31;16.90;;;15.20;;
67528;SDS011;54366;51.980;5.856;2023-04-21T14:22:58;22.35;;;19.27;;
67528;SDS011;54366;51.980;5.856;2023-04-21T14:25:30;21.77;;;19.58;;
67528;SDS011;54366;51.980;5.856;2023-04-21T14:27:57;21.48;;;18.95;;
67528;SDS011;54366;51.980;5.856;2023-04-21T14:30:30;21.75;;;19.55;;
67528;SDS011;54366;51.980;5.856;2023-04-21T14:33:03;24.25;;;20.48;;
67528;SDS011;54366;51.980;5.856;2023-04-21T14:35:30;20.00;;;17.25;;
67528;SDS011;54366;51.980;5.856;2023-04-21T14:38:03;17.00;;;15.20;;
67528;SDS011;54366;51.980;5.856;2023-04-21T14:40:36;19.08;;;17.08;;
67528;SDS011;54366;51.980;5.856;2023-04-21T14:43:09;20.42;;;18.33;;
67528;SDS011;54366;51.980;5.856;2023-04-21T14:45:42;21.67;;;19.52;;
67528;SDS011;54366;51.980;5.856;2023-04-21T14:48:15;19.58;;;17.58;;
67528;SDS011;54366;51.980;5.856;2023-04-21T14:50:48;19.67;;;17.67;;
67528;SDS011;54366;51.980;5.856;2023-04-21T14:53:28;17.33;;;15.55;;
67528;SDS011;54366;51.980;5.856;2023-04-21T14:56:08;22.10;;;19.75;;
67528;SDS011;54366;51.980;5.856;2023-04-21T14:58:34;22.20;;;19.90;;
67528;SDS011;54366;51.980;5.856;2023-04-21T15:01:07;17.50;;;15.70;;
67528;SDS011;54366;51.980;5.856;2023-04-21T15:03:41;19.17;;;17.17;;